createdAt,value
2018-04-26T00:00:02.075Z,8.2
2018-04-26T00:05:02.499Z,8.2
2018-04-26T00:10:01.182Z,8.2
2018-04-26T00:15:01.236Z,8.2
2018-04-26T00:20:02.417Z,8.3
2018-04-26T00:25:01.512Z,8.3
2018-04-26T00:30:01.908Z,8.3
2018-04-26T00:35:01.630Z,8.3
2018-04-26T00:40:02.260Z,8.3
2018-04-26T00:45:01.612Z,8.2
2018-04-26T00:50:01.451Z,8.1
2018-04-26T00:55:01.413Z,8.1
2018-04-26T01:00:01.707Z,8
2018-04-26T01:05:01.864Z,8
2018-04-26T01:10:01.706Z,7.9
2018-04-26T01:15:01.607Z,7.8
2018-04-26T01:20:01.412Z,7.7
2018-04-26T01:25:01.360Z,7.7
2018-04-26T01:30:01.773Z,7.6
2018-04-26T01:35:01.545Z,7.5
2018-04-26T01:40:01.445Z,7.5
2018-04-26T01:45:02.280Z,7.4
2018-04-26T01:50:02.018Z,7.3
2018-04-26T01:55:01.980Z,7.2
2018-04-26T02:00:01.493Z,7.2
2018-04-26T02:05:02.053Z,7.2
2018-04-26T02:10:01.512Z,7
2018-04-26T02:15:01.856Z,7
2018-04-26T02:20:02.103Z,6.9
2018-04-26T02:25:01.384Z,6.9
2018-04-26T02:30:01.987Z,6.8
2018-04-26T02:35:01.590Z,6.8
2018-04-26T02:40:01.760Z,6.8
2018-04-26T02:45:01.872Z,6.7
2018-04-26T02:50:01.466Z,6.7
2018-04-26T02:55:01.595Z,6.7
2018-04-26T03:00:02.068Z,6.6
2018-04-26T03:05:01.422Z,6.6
2018-04-26T03:10:01.608Z,6.6
2018-04-26T03:15:01.574Z,6.6
2018-04-26T03:20:01.482Z,6.5
2018-04-26T03:25:01.653Z,6.5
2018-04-26T03:30:02.050Z,6.4
2018-04-26T03:35:01.564Z,6.4
2018-04-26T03:40:02.041Z,6.5
2018-04-26T03:45:01.625Z,6.4
2018-04-26T03:50:01.782Z,6.4
2018-04-26T03:55:02.013Z,6.5
2018-04-26T04:00:01.505Z,6.5
2018-04-26T04:05:02.037Z,6.5
2018-04-26T04:10:02.406Z,6.5
2018-04-26T04:15:01.274Z,6.5
2018-04-26T04:20:01.232Z,6.5
2018-04-26T04:25:01.828Z,6.6
2018-04-26T04:30:01.673Z,6.7
2018-04-26T04:35:01.405Z,6.8
2018-04-26T04:40:01.374Z,6.8
2018-04-26T04:45:02.396Z,6.9
2018-04-26T04:50:01.290Z,7
2018-04-26T04:55:01.238Z,7.2
2018-04-26T05:00:01.740Z,7.3
2018-04-26T05:05:01.797Z,7.4
2018-04-26T05:10:01.877Z,7.4
2018-04-26T05:15:01.229Z,7.5
2018-04-26T05:20:02.319Z,7.5
2018-04-26T05:25:02.140Z,7.5
2018-04-26T05:30:01.614Z,7.5
2018-04-26T05:35:01.472Z,7.5
2018-04-26T05:40:01.492Z,7.6
2018-04-26T05:45:01.419Z,7.6
2018-04-26T05:50:01.531Z,7.7
2018-04-26T05:55:01.913Z,7.8
2018-04-26T06:00:01.394Z,7.8
2018-04-26T06:05:01.328Z,7.9
2018-04-26T06:10:02.402Z,7.9
2018-04-26T06:15:01.817Z,8
2018-04-26T06:20:01.681Z,8.1
2018-04-26T06:25:01.626Z,8.2
2018-04-26T06:30:01.450Z,8.3
2018-04-26T06:35:01.767Z,8.3
2018-04-26T06:40:01.743Z,8.3
2018-04-26T06:45:01.898Z,8.4
2018-04-26T06:50:02.077Z,8.8
2018-04-26T06:55:01.840Z,9.1
2018-04-26T07:00:02.191Z,9.3
2018-04-26T07:05:01.813Z,9.3
2018-04-26T07:10:01.869Z,9.4
2018-04-26T07:15:01.871Z,9.6
2018-04-26T07:20:02.230Z,9.8
2018-04-26T07:25:01.923Z,9.8
2018-04-26T07:30:01.776Z,9.9
2018-04-26T07:35:01.848Z,10
2018-04-26T07:40:02.164Z,10.2
2018-04-26T07:45:01.434Z,10.4
2018-04-26T07:50:01.669Z,10.4
2018-04-26T07:55:01.495Z,10.3
2018-04-26T08:00:02.391Z,10.3
2018-04-26T08:05:01.236Z,10.4
2018-04-26T08:10:01.527Z,10.6
2018-04-26T08:15:01.677Z,10.9
2018-04-26T08:20:01.798Z,11
2018-04-26T08:25:01.345Z,11.1
2018-04-26T08:30:02.118Z,11.2
2018-04-26T08:35:01.446Z,11.8
2018-04-26T08:40:01.753Z,12.1
2018-04-26T08:45:01.825Z,11.7
2018-04-26T08:50:02.049Z,11.4
2018-04-26T08:55:01.864Z,11.9
2018-04-26T09:00:01.375Z,12.3
2018-04-26T09:05:01.434Z,12.4
2018-04-26T09:10:02.208Z,13.2
2018-04-26T09:15:02.119Z,13.4
2018-04-26T09:20:01.623Z,13.3
2018-04-26T09:25:01.371Z,13.9
2018-04-26T09:30:02.518Z,14.1
2018-04-26T09:35:01.511Z,14.1
2018-04-26T09:40:01.376Z,14.3
2018-04-26T09:45:01.532Z,14.7
2018-04-26T09:50:02.264Z,14.7
2018-04-26T09:55:02.057Z,14.3
2018-04-26T10:00:01.662Z,14
2018-04-26T10:05:01.932Z,14.6
2018-04-26T10:10:02.213Z,14.4
2018-04-26T10:15:01.446Z,14.3
2018-04-26T10:20:01.376Z,14.1
2018-04-26T10:25:01.368Z,13.9
2018-04-26T10:30:02.160Z,13.7
2018-04-26T10:35:01.750Z,14.1
2018-04-26T10:40:01.665Z,14
2018-04-26T10:45:01.400Z,14.2
2018-04-26T10:50:02.004Z,13.8
2018-04-26T10:55:01.963Z,13.6
2018-04-26T11:00:01.311Z,13.6
2018-04-26T11:05:01.904Z,13.3
2018-04-26T11:10:02.000Z,13.6
2018-04-26T11:15:01.708Z,14.4
2018-04-26T11:20:01.822Z,13.9
2018-04-26T11:25:02.031Z,13.4
2018-04-26T11:30:01.599Z,11.3
2018-04-26T11:35:02.305Z,11.4
2018-04-26T11:40:01.389Z,12.1
2018-04-26T11:45:01.778Z,12.2
2018-04-26T11:50:01.453Z,12.1
2018-04-26T11:55:02.002Z,13.1
2018-04-26T12:00:01.495Z,13.9
2018-04-26T12:05:01.860Z,14.2
2018-04-26T12:10:02.687Z,14.9
2018-04-26T12:15:01.323Z,15.4
2018-04-26T12:20:01.203Z,15.3
2018-04-26T12:25:01.321Z,15.5
2018-04-26T12:30:01.985Z,15.3
2018-04-26T12:35:02.005Z,15.5
2018-04-26T12:40:02.059Z,15.7
2018-04-26T12:45:01.637Z,16.1
2018-04-26T12:50:02.122Z,16.2
2018-04-26T12:55:02.175Z,16.2
2018-04-26T13:00:01.647Z,15.5
2018-04-26T13:05:02.019Z,15
2018-04-26T13:10:01.628Z,14.9
2018-04-26T13:15:01.763Z,14.5
2018-04-26T13:20:01.990Z,14.3
2018-04-26T13:25:01.514Z,14.3
2018-04-26T13:30:02.181Z,13.9
2018-04-26T13:35:01.891Z,13.6
2018-04-26T13:40:01.395Z,13.9
2018-04-26T13:45:01.369Z,14.6
2018-04-26T13:50:01.597Z,15
2018-04-26T13:55:01.657Z,15.7
2018-04-26T14:00:01.652Z,15.7
2018-04-26T14:05:01.897Z,14.6
2018-04-26T14:10:01.992Z,14.3
2018-04-26T14:15:02.015Z,14.8
2018-04-26T14:20:02.056Z,14.4
2018-04-26T14:25:01.728Z,13.6
2018-04-26T14:30:01.968Z,13.5
2018-04-26T14:35:01.667Z,13.5
2018-04-26T14:40:01.977Z,13.9
2018-04-26T14:45:02.088Z,14.3
2018-04-26T14:50:01.190Z,14.3
2018-04-26T14:55:02.090Z,14.3
2018-04-26T15:00:01.426Z,14.1
2018-04-26T15:05:01.758Z,14.1
2018-04-26T15:10:02.073Z,14.7
2018-04-26T15:15:02.294Z,14.8
2018-04-26T15:20:01.173Z,14.8
2018-04-26T15:25:01.933Z,14.7
2018-04-26T15:30:01.475Z,14.5
2018-04-26T15:35:01.371Z,14.7
2018-04-26T15:40:01.648Z,14.5
2018-04-26T15:45:02.042Z,14.2
2018-04-26T15:50:02.796Z,14.2
2018-04-26T15:55:01.476Z,14.1
2018-04-26T16:00:01.661Z,13.8
2018-04-26T16:05:01.427Z,13.6
2018-04-26T16:10:01.981Z,13.2
2018-04-26T16:15:01.172Z,13.1
2018-04-26T16:20:02.075Z,12.9
2018-04-26T16:25:01.860Z,12.7
2018-04-26T16:30:01.495Z,12.5
2018-04-26T16:35:01.874Z,12.8
2018-04-26T16:40:02.147Z,13
2018-04-26T16:45:01.795Z,12.9
2018-04-26T16:50:01.833Z,13
2018-04-26T16:55:01.920Z,12.9
2018-04-26T17:00:02.041Z,12.9
2018-04-26T17:05:02.086Z,12.5
2018-04-26T17:10:01.200Z,12.3
2018-04-26T17:15:01.661Z,12.3
2018-04-26T17:20:01.189Z,11.9
2018-04-26T17:25:01.408Z,11.7
2018-04-26T17:30:02.236Z,11.6
2018-04-26T17:35:01.957Z,11.4
2018-04-26T17:40:02.113Z,11.3
2018-04-26T17:45:01.376Z,11.2
2018-04-26T17:50:01.659Z,11
2018-04-26T17:55:02.111Z,11
2018-04-26T18:00:01.968Z,10.9
2018-04-26T18:05:02.282Z,10.8
2018-04-26T18:10:02.513Z,10.7
2018-04-26T18:15:02.330Z,10.5
2018-04-26T18:20:08.576Z,10.4
2018-04-26T18:25:01.580Z,10.3
2018-04-26T18:30:01.504Z,10.2
2018-04-26T18:35:01.237Z,10.1
2018-04-26T18:40:02.234Z,10
2018-04-26T18:45:01.718Z,9.9
2018-04-26T18:50:01.886Z,9.8
2018-04-26T18:55:01.638Z,9.8
2018-04-26T19:00:01.888Z,9.7
2018-04-26T19:05:01.514Z,9.6
2018-04-26T19:10:01.512Z,9.6
2018-04-26T19:15:01.972Z,9.5
2018-04-26T19:20:01.777Z,9.5
2018-04-26T19:25:02.107Z,9.4
2018-04-26T19:30:01.374Z,9.3
2018-04-26T19:35:02.678Z,9.3
2018-04-26T19:40:01.602Z,9.2
2018-04-26T19:45:02.758Z,9.2
2018-04-26T19:50:01.250Z,9.2
2018-04-26T19:55:01.774Z,9.1
2018-04-26T20:00:02.207Z,9
2018-04-26T20:05:01.821Z,9
2018-04-26T20:10:02.054Z,8.9
2018-04-26T20:15:02.261Z,8.9
2018-04-26T20:20:01.214Z,8.8
2018-04-26T20:25:02.373Z,8.7
2018-04-26T20:30:01.699Z,8.6
2018-04-26T20:35:01.449Z,8.5
2018-04-26T20:40:01.714Z,8.4
2018-04-26T20:45:01.959Z,8.4
2018-04-26T20:50:01.772Z,8.3
2018-04-26T20:55:01.656Z,8.2
2018-04-26T21:00:01.866Z,8.1
2018-04-26T21:05:02.018Z,8
2018-04-26T21:10:01.464Z,7.9
2018-04-26T21:15:01.725Z,7.8
2018-04-26T21:20:01.242Z,7.7
2018-04-26T21:25:01.443Z,7.7
2018-04-26T21:30:02.196Z,7.6
2018-04-26T21:35:01.798Z,7.6
2018-04-26T21:40:01.490Z,7.5
2018-04-26T21:45:01.943Z,7.5
2018-04-26T21:50:02.499Z,7.5
2018-04-26T21:55:01.797Z,7.4
2018-04-26T22:00:01.694Z,7.4
2018-04-26T22:05:01.819Z,7.4
2018-04-26T22:10:01.273Z,7.4
2018-04-26T22:15:01.833Z,7.5
2018-04-26T22:20:02.016Z,7.5
2018-04-26T22:25:01.685Z,7.5
2018-04-26T22:30:01.757Z,7.5
2018-04-26T22:35:01.702Z,7.5
2018-04-26T22:40:01.892Z,7.5
2018-04-26T22:45:01.211Z,7.4
2018-04-26T22:50:01.293Z,7.5
2018-04-26T22:55:01.348Z,7.4
2018-04-26T23:00:01.283Z,7.4
2018-04-26T23:05:01.211Z,7.4
2018-04-26T23:10:02.570Z,7.3
2018-04-26T23:15:01.617Z,7.3
2018-04-26T23:20:01.954Z,7.3
2018-04-26T23:25:02.494Z,7.3
2018-04-26T23:30:01.257Z,7.3
2018-04-26T23:35:01.858Z,7.3
2018-04-26T23:40:01.870Z,7.4
2018-04-26T23:45:01.385Z,7.5
2018-04-26T23:50:01.328Z,7.5
2018-04-26T23:55:01.985Z,7.6
